sensor_id;sensor_type;location;lat;lon;timestamp;temperature;humidity
46816;DHT22;32787;53.316;8.670;2023-07-24T00:01:08;18.60;91.10
46816;DHT22;32787;53.316;8.670;2023-07-24T00:03:34;18.60;90.70
46816;DHT22;32787;53.316;8.670;2023-07-24T00:06:00;18.40;91.10
46816;DHT22;32787;53.316;8.670;2023-07-24T00:08:25;18.50;91.30
46816;DHT22;32787;53.316;8.670;2023-07-24T00:10:51;18.40;91.10
46816;DHT22;32787;53.316;8.670;2023-07-24T00:13:17;18.40;90.90
46816;DHT22;32787;53.316;8.670;2023-07-24T00:15:42;18.40;91.10
46816;DHT22;32787;53.316;8.670;2023-07-24T00:18:08;18.60;91.20
46816;DHT22;32787;53.316;8.670;2023-07-24T00:20:34;18.40;91.20
46816;DHT22;32787;53.316;8.670;2023-07-24T00:22:59;18.40;91.10
46816;DHT22;32787;53.316;8.670;2023-07-24T00:25:25;18.30;91.40
46816;DHT22;32787;53.316;8.670;2023-07-24T00:27:50;18.30;91.50
46816;DHT22;32787;53.316;8.670;2023-07-24T00:30:16;18.40;91.50
46816;DHT22;32787;53.316;8.670;2023-07-24T00:32:42;18.40;91.20
46816;DHT22;32787;53.316;8.670;2023-07-24T00:35:07;18.50;91.10
46816;DHT22;32787;53.316;8.670;2023-07-24T00:37:34;18.30;91.20
46816;DHT22;32787;53.316;8.670;2023-07-24T00:39:59;18.40;91.20
46816;DHT22;32787;53.316;8.670;2023-07-24T00:42:25;18.50;90.90
46816;DHT22;32787;53.316;8.670;2023-07-24T00:44:50;18.50;90.80
46816;DHT22;32787;53.316;8.670;2023-07-24T00:47:17;18.30;90.90
46816;DHT22;32787;53.316;8.670;2023-07-24T00:49:43;18.20;91.20
46816;DHT22;32787;53.316;8.670;2023-07-24T00:52:10;18.20;91.30
46816;DHT22;32787;53.316;8.670;2023-07-24T00:54:36;18.20;91.50
46816;DHT22;32787;53.316;8.670;2023-07-24T00:57:03;18.30;91.60
46816;DHT22;32787;53.316;8.670;2023-07-24T00:59:29;18.20;91.30
46816;DHT22;32787;53.316;8.670;2023-07-24T01:01:55;18.00;91.60
46816;DHT22;32787;53.316;8.670;2023-07-24T01:04:22;18.10;91.40
46816;DHT22;32787;53.316;8.670;2023-07-24T01:06:47;18.00;91.50
46816;DHT22;32787;53.316;8.670;2023-07-24T01:09:13;18.10;91.50
46816;DHT22;32787;53.316;8.670;2023-07-24T01:12:03;17.90;91.70
46816;DHT22;32787;53.316;8.670;2023-07-24T01:17:01;18.20;91.50
46816;DHT22;32787;53.316;8.670;2023-07-24T01:19:40;18.00;91.50
46816;DHT22;32787;53.316;8.670;2023-07-24T01:25:20;18.20;91.30
46816;DHT22;32787;53.316;8.670;2023-07-24T01:27:48;17.90;91.30
46816;DHT22;32787;53.316;8.670;2023-07-24T01:30:18;18.00;91.60
46816;DHT22;32787;53.316;8.670;2023-07-24T01:32:44;17.90;91.40
46816;DHT22;32787;53.316;8.670;2023-07-24T01:35:10;17.90;91.30
46816;DHT22;32787;53.316;8.670;2023-07-24T01:37:36;18.10;91.40
46816;DHT22;32787;53.316;8.670;2023-07-24T01:40:06;18.00;91.20
46816;DHT22;32787;53.316;8.670;2023-07-24T01:42:33;17.90;91.50
46816;DHT22;32787;53.316;8.670;2023-07-24T01:44:58;17.80;91.20
46816;DHT22;32787;53.316;8.670;2023-07-24T01:47:24;17.80;91.30
46816;DHT22;32787;53.316;8.670;2023-07-24T01:49:50;17.80;91.30
46816;DHT22;32787;53.316;8.670;2023-07-24T01:52:15;17.80;91.30
46816;DHT22;32787;53.316;8.670;2023-07-24T01:54:41;17.80;91.40
46816;DHT22;32787;53.316;8.670;2023-07-24T01:57:07;17.80;91.50
46816;DHT22;32787;53.316;8.670;2023-07-24T01:59:32;17.80;91.40
46816;DHT22;32787;53.316;8.670;2023-07-24T02:01:58;17.80;91.50
46816;DHT22;32787;53.316;8.670;2023-07-24T02:04:23;17.80;91.50
46816;DHT22;32787;53.316;8.670;2023-07-24T02:06:49;17.70;91.60
46816;DHT22;32787;53.316;8.670;2023-07-24T02:09:17;17.60;91.60
46816;DHT22;32787;53.316;8.670;2023-07-24T02:11:42;17.60;91.80
46816;DHT22;32787;53.316;8.670;2023-07-24T02:14:08;17.60;91.70
46816;DHT22;32787;53.316;8.670;2023-07-24T02:16:33;17.70;91.70
46816;DHT22;32787;53.316;8.670;2023-07-24T02:18:59;17.60;91.60
46816;DHT22;32787;53.316;8.670;2023-07-24T02:21:25;17.60;91.60
46816;DHT22;32787;53.316;8.670;2023-07-24T02:23:50;17.60;91.30
46816;DHT22;32787;53.316;8.670;2023-07-24T02:26:16;17.50;91.70
46816;DHT22;32787;53.316;8.670;2023-07-24T02:28:42;17.60;91.50
46816;DHT22;32787;53.316;8.670;2023-07-24T02:31:07;17.50;91.70
46816;DHT22;32787;53.316;8.670;2023-07-24T02:33:33;17.40;91.80
46816;DHT22;32787;53.316;8.670;2023-07-24T02:35:58;17.60;91.70
46816;DHT22;32787;53.316;8.670;2023-07-24T02:38:24;17.50;91.30
46816;DHT22;32787;53.316;8.670;2023-07-24T02:40:49;17.50;91.50
46816;DHT22;32787;53.316;8.670;2023-07-24T02:43:15;17.30;91.70
46816;DHT22;32787;53.316;8.670;2023-07-24T02:45:41;17.30;91.70
46816;DHT22;32787;53.316;8.670;2023-07-24T02:48:06;17.30;92.00
46816;DHT22;32787;53.316;8.670;2023-07-24T02:50:35;17.40;91.60
46816;DHT22;32787;53.316;8.670;2023-07-24T02:53:01;17.30;91.70
46816;DHT22;32787;53.316;8.670;2023-07-24T02:55:27;17.40;91.80
46816;DHT22;32787;53.316;8.670;2023-07-24T02:57:53;17.30;91.50
46816;DHT22;32787;53.316;8.670;2023-07-24T03:00:19;17.40;91.10
46816;DHT22;32787;53.316;8.670;2023-07-24T03:02:44;17.30;91.40
46816;DHT22;32787;53.316;8.670;2023-07-24T03:05:10;17.30;91.20
46816;DHT22;32787;53.316;8.670;2023-07-24T03:07:35;17.30;91.60
46816;DHT22;32787;53.316;8.670;2023-07-24T03:10:02;17.30;91.30
46816;DHT22;32787;53.316;8.670;2023-07-24T03:12:28;17.60;90.90
46816;DHT22;32787;53.316;8.670;2023-07-24T03:14:53;17.40;90.80
46816;DHT22;32787;53.316;8.670;2023-07-24T03:17:19;17.30;91.00
46816;DHT22;32787;53.316;8.670;2023-07-24T03:19:45;17.30;91.10
46816;DHT22;32787;53.316;8.670;2023-07-24T03:22:10;17.30;90.90
46816;DHT22;32787;53.316;8.670;2023-07-24T03:24:36;17.20;90.90
46816;DHT22;32787;53.316;8.670;2023-07-24T03:27:02;17.00;91.40
46816;DHT22;32787;53.316;8.670;2023-07-24T03:29:28;16.80;91.80
46816;DHT22;32787;53.316;8.670;2023-07-24T03:31:54;16.90;92.10
46816;DHT22;32787;53.316;8.670;2023-07-24T03:34:19;16.90;92.10
46816;DHT22;32787;53.316;8.670;2023-07-24T03:36:45;16.80;92.10
46816;DHT22;32787;53.316;8.670;2023-07-24T03:39:11;16.80;92.40
46816;DHT22;32787;53.316;8.670;2023-07-24T03:41:41;16.80;92.50
46816;DHT22;32787;53.316;8.670;2023-07-24T03:44:07;16.90;92.50
46816;DHT22;32787;53.316;8.670;2023-07-24T03:46:33;16.80;92.50
46816;DHT22;32787;53.316;8.670;2023-07-24T03:48:58;16.80;92.40
46816;DHT22;32787;53.316;8.670;2023-07-24T03:51:24;16.90;92.70
46816;DHT22;32787;53.316;8.670;2023-07-24T03:53:50;17.00;92.30
46816;DHT22;32787;53.316;8.670;2023-07-24T03:56:15;17.00;92.10
46816;DHT22;32787;53.316;8.670;2023-07-24T03:58:41;17.00;92.20
46816;DHT22;32787;53.316;8.670;2023-07-24T04:01:08;16.90;92.30
46816;DHT22;32787;53.316;8.670;2023-07-24T04:03:33;17.10;92.50
46816;DHT22;32787;53.316;8.670;2023-07-24T04:05:59;17.30;92.00
46816;DHT22;32787;53.316;8.670;2023-07-24T04:08:25;17.40;91.40
46816;DHT22;32787;53.316;8.670;2023-07-24T04:10:50;17.50;91.30
46816;DHT22;32787;53.316;8.670;2023-07-24T04:13:16;17.50;91.10
46816;DHT22;32787;53.316;8.670;2023-07-24T04:15:41;17.60;91.00
46816;DHT22;32787;53.316;8.670;2023-07-24T04:18:07;17.40;91.00
46816;DHT22;32787;53.316;8.670;2023-07-24T04:20:32;17.40;91.40
46816;DHT22;32787;53.316;8.670;2023-07-24T04:22:58;17.60;91.00
46816;DHT22;32787;53.316;8.670;2023-07-24T04:25:24;17.50;91.00
46816;DHT22;32787;53.316;8.670;2023-07-24T04:27:49;17.40;91.00
46816;DHT22;32787;53.316;8.670;2023-07-24T04:30:15;17.50;91.20
46816;DHT22;32787;53.316;8.670;2023-07-24T04:32:41;17.70;90.70
46816;DHT22;32787;53.316;8.670;2023-07-24T04:35:07;17.70;90.70
46816;DHT22;32787;53.316;8.670;2023-07-24T04:37:33;17.70;91.00
46816;DHT22;32787;53.316;8.670;2023-07-24T04:39:58;17.70;90.50
46816;DHT22;32787;53.316;8.670;2023-07-24T04:42:24;17.80;90.90
46816;DHT22;32787;53.316;8.670;2023-07-24T04:44:50;17.80;90.60
46816;DHT22;32787;53.316;8.670;2023-07-24T04:47:16;17.90;90.30
46816;DHT22;32787;53.316;8.670;2023-07-24T04:49:42;17.70;90.50
46816;DHT22;32787;53.316;8.670;2023-07-24T04:52:08;17.90;90.30
46816;DHT22;32787;53.316;8.670;2023-07-24T04:54:33;17.90;90.40
46816;DHT22;32787;53.316;8.670;2023-07-24T04:56:59;17.80;90.50
46816;DHT22;32787;53.316;8.670;2023-07-24T04:59:24;17.90;90.50
46816;DHT22;32787;53.316;8.670;2023-07-24T05:01:50;17.80;90.70
46816;DHT22;32787;53.316;8.670;2023-07-24T05:04:16;17.70;90.90
46816;DHT22;32787;53.316;8.670;2023-07-24T05:06:41;18.00;90.10
46816;DHT22;32787;53.316;8.670;2023-07-24T05:09:07;17.80;90.50
46816;DHT22;32787;53.316;8.670;2023-07-24T05:11:33;18.10;90.60
46816;DHT22;32787;53.316;8.670;2023-07-24T05:13:58;18.10;89.90
46816;DHT22;32787;53.316;8.670;2023-07-24T05:16:24;17.90;90.60
46816;DHT22;32787;53.316;8.670;2023-07-24T05:18:49;17.80;91.00
46816;DHT22;32787;53.316;8.670;2023-07-24T05:21:15;17.70;91.10
46816;DHT22;32787;53.316;8.670;2023-07-24T05:23:40;17.70;91.20
46816;DHT22;32787;53.316;8.670;2023-07-24T05:26:06;17.80;91.10
46816;DHT22;32787;53.316;8.670;2023-07-24T05:28:32;17.70;91.30
46816;DHT22;32787;53.316;8.670;2023-07-24T05:31:02;17.70;91.30
46816;DHT22;32787;53.316;8.670;2023-07-24T05:33:28;17.70;91.60
46816;DHT22;32787;53.316;8.670;2023-07-24T05:36:01;17.90;91.60
46816;DHT22;32787;53.316;8.670;2023-07-24T05:38:27;18.20;90.50
46816;DHT22;32787;53.316;8.670;2023-07-24T05:41:02;18.20;89.70
46816;DHT22;32787;53.316;8.670;2023-07-24T05:43:28;18.10;90.30
46816;DHT22;32787;53.316;8.670;2023-07-24T05:45:55;18.00;90.30
46816;DHT22;32787;53.316;8.670;2023-07-24T05:48:21;18.00;90.10
46816;DHT22;32787;53.316;8.670;2023-07-24T05:50:47;18.10;90.50
46816;DHT22;32787;53.316;8.670;2023-07-24T05:53:13;18.20;89.70
46816;DHT22;32787;53.316;8.670;2023-07-24T05:55:39;18.20;90.10
46816;DHT22;32787;53.316;8.670;2023-07-24T05:58:04;18.20;90.00
46816;DHT22;32787;53.316;8.670;2023-07-24T06:00:30;18.30;89.70
46816;DHT22;32787;53.316;8.670;2023-07-24T06:02:56;18.20;89.90
46816;DHT22;32787;53.316;8.670;2023-07-24T06:05:21;18.30;89.80
46816;DHT22;32787;53.316;8.670;2023-07-24T06:07:47;18.10;90.10
46816;DHT22;32787;53.316;8.670;2023-07-24T06:10:13;18.10;90.20
46816;DHT22;32787;53.316;8.670;2023-07-24T06:12:38;18.20;90.30
46816;DHT22;32787;53.316;8.670;2023-07-24T06:15:04;18.10;90.50
46816;DHT22;32787;53.316;8.670;2023-07-24T06:17:30;18.20;90.50
46816;DHT22;32787;53.316;8.670;2023-07-24T06:19:56;18.30;90.00
46816;DHT22;32787;53.316;8.670;2023-07-24T06:22:22;18.50;89.70
46816;DHT22;32787;53.316;8.670;2023-07-24T06:24:48;18.40;89.50
46816;DHT22;32787;53.316;8.670;2023-07-24T06:27:14;18.30;89.80
46816;DHT22;32787;53.316;8.670;2023-07-24T06:29:39;18.50;89.90
46816;DHT22;32787;53.316;8.670;2023-07-24T06:32:05;18.30;90.10
46816;DHT22;32787;53.316;8.670;2023-07-24T06:34:31;18.50;89.70
46816;DHT22;32787;53.316;8.670;2023-07-24T06:36:57;18.50;89.30
46816;DHT22;32787;53.316;8.670;2023-07-24T06:39:22;18.50;89.50
46816;DHT22;32787;53.316;8.670;2023-07-24T06:41:48;18.40;89.50
46816;DHT22;32787;53.316;8.670;2023-07-24T06:44:13;18.40;89.50
46816;DHT22;32787;53.316;8.670;2023-07-24T06:46:39;18.30;90.00
46816;DHT22;32787;53.316;8.670;2023-07-24T06:49:05;18.30;90.50
46816;DHT22;32787;53.316;8.670;2023-07-24T06:51:30;18.30;89.50
46816;DHT22;32787;53.316;8.670;2023-07-24T06:53:56;18.30;89.70
46816;DHT22;32787;53.316;8.670;2023-07-24T06:56:21;18.30;89.90
46816;DHT22;32787;53.316;8.670;2023-07-24T06:58:47;18.30;90.40
46816;DHT22;32787;53.316;8.670;2023-07-24T07:01:12;18.30;90.00
46816;DHT22;32787;53.316;8.670;2023-07-24T07:03:38;18.10;90.90
46816;DHT22;32787;53.316;8.670;2023-07-24T07:06:04;18.10;90.70
46816;DHT22;32787;53.316;8.670;2023-07-24T07:08:30;18.10;91.00
46816;DHT22;32787;53.316;8.670;2023-07-24T07:11:00;18.10;91.10
46816;DHT22;32787;53.316;8.670;2023-07-24T07:13:26;18.20;91.10
46816;DHT22;32787;53.316;8.670;2023-07-24T07:15:52;18.30;90.60
46816;DHT22;32787;53.316;8.670;2023-07-24T07:18:17;18.20;90.70
46816;DHT22;32787;53.316;8.670;2023-07-24T07:20:47;18.00;91.30
46816;DHT22;32787;53.316;8.670;2023-07-24T07:23:13;18.30;91.00
46816;DHT22;32787;53.316;8.670;2023-07-24T07:25:39;18.50;90.30
46816;DHT22;32787;53.316;8.670;2023-07-24T07:28:04;18.30;90.40
46816;DHT22;32787;53.316;8.670;2023-07-24T07:30:30;18.30;91.00
46816;DHT22;32787;53.316;8.670;2023-07-24T07:32:55;18.30;90.90
46816;DHT22;32787;53.316;8.670;2023-07-24T07:35:21;18.40;90.20
46816;DHT22;32787;53.316;8.670;2023-07-24T07:37:46;18.50;90.30
46816;DHT22;32787;53.316;8.670;2023-07-24T07:40:12;18.40;90.40
46816;DHT22;32787;53.316;8.670;2023-07-24T07:42:38;18.50;90.50
46816;DHT22;32787;53.316;8.670;2023-07-24T07:45:04;18.60;89.90
46816;DHT22;32787;53.316;8.670;2023-07-24T07:47:30;18.80;89.10
46816;DHT22;32787;53.316;8.670;2023-07-24T07:49:55;18.70;89.20
46816;DHT22;32787;53.316;8.670;2023-07-24T07:52:21;18.80;89.50
46816;DHT22;32787;53.316;8.670;2023-07-24T07:54:48;18.90;89.10
46816;DHT22;32787;53.316;8.670;2023-07-24T07:57:14;18.90;88.90
46816;DHT22;32787;53.316;8.670;2023-07-24T07:59:39;19.00;88.90
46816;DHT22;32787;53.316;8.670;2023-07-24T08:02:05;19.00;88.90
46816;DHT22;32787;53.316;8.670;2023-07-24T08:04:31;19.10;89.30
46816;DHT22;32787;53.316;8.670;2023-07-24T08:06:57;19.10;89.10
46816;DHT22;32787;53.316;8.670;2023-07-24T08:09:23;19.20;87.80
46816;DHT22;32787;53.316;8.670;2023-07-24T08:11:50;19.30;87.80
46816;DHT22;32787;53.316;8.670;2023-07-24T08:14:17;19.30;87.50
46816;DHT22;32787;53.316;8.670;2023-07-24T08:16:43;19.40;87.60
46816;DHT22;32787;53.316;8.670;2023-07-24T08:19:09;19.40;86.90
46816;DHT22;32787;53.316;8.670;2023-07-24T08:21:34;19.50;86.60
46816;DHT22;32787;53.316;8.670;2023-07-24T08:24:00;19.60;86.20
46816;DHT22;32787;53.316;8.670;2023-07-24T08:26:27;19.50;85.80
46816;DHT22;32787;53.316;8.670;2023-07-24T08:28:53;19.40;86.10
46816;DHT22;32787;53.316;8.670;2023-07-24T08:31:19;19.50;86.90
46816;DHT22;32787;53.316;8.670;2023-07-24T08:33:45;19.50;86.10
46816;DHT22;32787;53.316;8.670;2023-07-24T08:36:10;19.50;85.90
46816;DHT22;32787;53.316;8.670;2023-07-24T08:38:38;19.50;85.30
46816;DHT22;32787;53.316;8.670;2023-07-24T08:41:13;19.50;85.60
46816;DHT22;32787;53.316;8.670;2023-07-24T08:43:43;19.40;85.90
46816;DHT22;32787;53.316;8.670;2023-07-24T08:46:09;19.40;86.40
46816;DHT22;32787;53.316;8.670;2023-07-24T08:48:36;19.20;86.10
46816;DHT22;32787;53.316;8.670;2023-07-24T08:51:11;19.30;86.70
46816;DHT22;32787;53.316;8.670;2023-07-24T08:53:39;19.40;86.90
46816;DHT22;32787;53.316;8.670;2023-07-24T08:56:06;19.40;86.30
46816;DHT22;32787;53.316;8.670;2023-07-24T08:58:33;19.50;85.40
46816;DHT22;32787;53.316;8.670;2023-07-24T09:01:00;19.60;86.60
46816;DHT22;32787;53.316;8.670;2023-07-24T09:03:26;19.80;86.20
46816;DHT22;32787;53.316;8.670;2023-07-24T09:05:52;19.90;83.80
46816;DHT22;32787;53.316;8.670;2023-07-24T09:08:28;19.80;84.20
46816;DHT22;32787;53.316;8.670;2023-07-24T09:10:55;19.80;84.40
46816;DHT22;32787;53.316;8.670;2023-07-24T09:13:21;19.70;85.20
46816;DHT22;32787;53.316;8.670;2023-07-24T09:15:47;19.70;84.90
46816;DHT22;32787;53.316;8.670;2023-07-24T09:18:12;19.80;85.50
46816;DHT22;32787;53.316;8.670;2023-07-24T09:20:42;20.00;84.50
46816;DHT22;32787;53.316;8.670;2023-07-24T09:23:10;20.10;83.10
46816;DHT22;32787;53.316;8.670;2023-07-24T09:25:38;20.10;83.30
46816;DHT22;32787;53.316;8.670;2023-07-24T09:28:14;19.80;83.90
46816;DHT22;32787;53.316;8.670;2023-07-24T09:30:41;19.90;83.90
46816;DHT22;32787;53.316;8.670;2023-07-24T09:33:07;19.80;84.20
46816;DHT22;32787;53.316;8.670;2023-07-24T09:35:33;19.60;84.60
46816;DHT22;32787;53.316;8.670;2023-07-24T09:38:10;19.60;85.30
46816;DHT22;32787;53.316;8.670;2023-07-24T09:40:44;19.80;84.80
46816;DHT22;32787;53.316;8.670;2023-07-24T09:43:18;19.90;85.60
46816;DHT22;32787;53.316;8.670;2023-07-24T09:45:44;20.20;83.40
46816;DHT22;32787;53.316;8.670;2023-07-24T09:48:12;20.60;83.30
46816;DHT22;32787;53.316;8.670;2023-07-24T09:50:45;20.50;81.80
46816;DHT22;32787;53.316;8.670;2023-07-24T09:53:43;20.30;83.90
46816;DHT22;32787;53.316;8.670;2023-07-24T09:56:10;20.40;83.40
46816;DHT22;32787;53.316;8.670;2023-07-24T09:58:37;20.30;81.50
46816;DHT22;32787;53.316;8.670;2023-07-24T10:01:08;20.40;81.50
46816;DHT22;32787;53.316;8.670;2023-07-24T10:03:46;20.60;81.50
46816;DHT22;32787;53.316;8.670;2023-07-24T10:06:12;20.70;82.40
46816;DHT22;32787;53.316;8.670;2023-07-24T10:08:40;20.70;81.80
46816;DHT22;32787;53.316;8.670;2023-07-24T10:11:13;20.80;83.10
46816;DHT22;32787;53.316;8.670;2023-07-24T10:13:40;21.10;80.00
46816;DHT22;32787;53.316;8.670;2023-07-24T10:16:06;21.00;78.10
46816;DHT22;32787;53.316;8.670;2023-07-24T10:18:34;21.00;78.00
46816;DHT22;32787;53.316;8.670;2023-07-24T10:21:07;20.90;81.20
46816;DHT22;32787;53.316;8.670;2023-07-24T10:23:37;20.50;80.80
46816;DHT22;32787;53.316;8.670;2023-07-24T10:26:06;20.50;80.60
46816;DHT22;32787;53.316;8.670;2023-07-24T10:28:34;20.70;81.10
46816;DHT22;32787;53.316;8.670;2023-07-24T10:31:04;20.80;81.20
46816;DHT22;32787;53.316;8.670;2023-07-24T10:33:35;20.90;80.40
46816;DHT22;32787;53.316;8.670;2023-07-24T10:36:08;21.10;79.00
46816;DHT22;32787;53.316;8.670;2023-07-24T10:38:40;21.10;79.70
46816;DHT22;32787;53.316;8.670;2023-07-24T10:41:07;21.10;78.60
46816;DHT22;32787;53.316;8.670;2023-07-24T10:43:50;21.30;78.10
46816;DHT22;32787;53.316;8.670;2023-07-24T10:46:17;21.40;77.60
46816;DHT22;32787;53.316;8.670;2023-07-24T10:48:45;21.50;78.20
46816;DHT22;32787;53.316;8.670;2023-07-24T10:51:12;21.80;78.80
46816;DHT22;32787;53.316;8.670;2023-07-24T10:53:47;22.00;78.40
46816;DHT22;32787;53.316;8.670;2023-07-24T10:56:13;22.50;76.60
46816;DHT22;32787;53.316;8.670;2023-07-24T10:58:39;22.30;73.40
46816;DHT22;32787;53.316;8.670;2023-07-24T11:01:05;22.00;73.90
46816;DHT22;32787;53.316;8.670;2023-07-24T11:03:31;21.80;75.50
46816;DHT22;32787;53.316;8.670;2023-07-24T11:05:58;22.00;74.40
46816;DHT22;32787;53.316;8.670;2023-07-24T11:08:24;22.30;73.40
46816;DHT22;32787;53.316;8.670;2023-07-24T11:10:53;22.50;72.20
46816;DHT22;32787;53.316;8.670;2023-07-24T11:13:27;22.70;71.50
46816;DHT22;32787;53.316;8.670;2023-07-24T11:15:53;23.20;70.10
46816;DHT22;32787;53.316;8.670;2023-07-24T11:18:20;23.70;70.90
46816;DHT22;32787;53.316;8.670;2023-07-24T11:20:55;23.70;69.80
46816;DHT22;32787;53.316;8.670;2023-07-24T11:23:21;24.00;69.70
46816;DHT22;32787;53.316;8.670;2023-07-24T11:25:50;24.10;68.20
46816;DHT22;32787;53.316;8.670;2023-07-24T11:28:17;24.20;64.60
46816;DHT22;32787;53.316;8.670;2023-07-24T11:30:43;24.10;64.70
46816;DHT22;32787;53.316;8.670;2023-07-24T11:33:11;23.80;66.30
46816;DHT22;32787;53.316;8.670;2023-07-24T11:35:37;23.20;67.90
46816;DHT22;32787;53.316;8.670;2023-07-24T11:38:08;23.20;68.90
46816;DHT22;32787;53.316;8.670;2023-07-24T11:40:44;23.00;68.40
46816;DHT22;32787;53.316;8.670;2023-07-24T11:43:36;23.30;70.50
46816;DHT22;32787;53.316;8.670;2023-07-24T11:46:10;23.80;69.70
46816;DHT22;32787;53.316;8.670;2023-07-24T11:48:41;23.50;65.30
46816;DHT22;32787;53.316;8.670;2023-07-24T11:51:06;23.40;67.60
46816;DHT22;32787;53.316;8.670;2023-07-24T11:53:32;23.50;65.10
46816;DHT22;32787;53.316;8.670;2023-07-24T11:55:59;23.10;67.40
46816;DHT22;32787;53.316;8.670;2023-07-24T11:58:31;23.80;67.80
46816;DHT22;32787;53.316;8.670;2023-07-24T12:00:56;24.30;64.20
46816;DHT22;32787;53.316;8.670;2023-07-24T12:03:24;24.40;64.20
46816;DHT22;32787;53.316;8.670;2023-07-24T12:05:51;24.30;64.20
46816;DHT22;32787;53.316;8.670;2023-07-24T12:08:20;24.10;64.70
46816;DHT22;32787;53.316;8.670;2023-07-24T12:10:48;24.20;66.00
46816;DHT22;32787;53.316;8.670;2023-07-24T12:13:14;24.30;67.00
46816;DHT22;32787;53.316;8.670;2023-07-24T12:15:40;24.00;67.60
46816;DHT22;32787;53.316;8.670;2023-07-24T12:18:06;23.70;64.60
46816;DHT22;32787;53.316;8.670;2023-07-24T12:20:32;23.80;64.60
46816;DHT22;32787;53.316;8.670;2023-07-24T12:22:58;24.00;68.50
46816;DHT22;32787;53.316;8.670;2023-07-24T12:25:23;24.20;64.50
46816;DHT22;32787;53.316;8.670;2023-07-24T12:27:49;24.40;63.30
46816;DHT22;32787;53.316;8.670;2023-07-24T12:30:15;24.20;66.40
46816;DHT22;32787;53.316;8.670;2023-07-24T12:32:41;24.20;64.10
46816;DHT22;32787;53.316;8.670;2023-07-24T12:35:08;24.30;65.50
46816;DHT22;32787;53.316;8.670;2023-07-24T12:37:34;24.30;64.30
46816;DHT22;32787;53.316;8.670;2023-07-24T12:40:00;24.20;64.40
46816;DHT22;32787;53.316;8.670;2023-07-24T12:42:25;24.40;60.40
46816;DHT22;32787;53.316;8.670;2023-07-24T12:44:52;25.50;57.80
46816;DHT22;32787;53.316;8.670;2023-07-24T12:47:17;26.00;59.50
46816;DHT22;32787;53.316;8.670;2023-07-24T12:49:43;25.30;59.60
46816;DHT22;32787;53.316;8.670;2023-07-24T12:52:10;24.70;59.70
46816;DHT22;32787;53.316;8.670;2023-07-24T12:54:36;24.70;65.10
46816;DHT22;32787;53.316;8.670;2023-07-24T12:57:02;25.20;61.00
46816;DHT22;32787;53.316;8.670;2023-07-24T12:59:28;25.50;60.00
46816;DHT22;32787;53.316;8.670;2023-07-24T13:01:54;26.10;61.30
46816;DHT22;32787;53.316;8.670;2023-07-24T13:04:20;26.50;55.30
46816;DHT22;32787;53.316;8.670;2023-07-24T13:06:46;26.20;57.00
46816;DHT22;32787;53.316;8.670;2023-07-24T13:09:11;25.70;58.20
46816;DHT22;32787;53.316;8.670;2023-07-24T13:11:37;25.40;59.70
46816;DHT22;32787;53.316;8.670;2023-07-24T13:14:03;25.10;61.40
46816;DHT22;32787;53.316;8.670;2023-07-24T13:16:28;24.80;63.10
46816;DHT22;32787;53.316;8.670;2023-07-24T13:18:54;25.00;61.70
46816;DHT22;32787;53.316;8.670;2023-07-24T13:21:20;25.20;62.00
46816;DHT22;32787;53.316;8.670;2023-07-24T13:23:45;25.40;60.50
46816;DHT22;32787;53.316;8.670;2023-07-24T13:26:12;25.30;58.30
46816;DHT22;32787;53.316;8.670;2023-07-24T13:28:38;25.30;57.10
46816;DHT22;32787;53.316;8.670;2023-07-24T13:31:15;25.90;58.40
46816;DHT22;32787;53.316;8.670;2023-07-24T13:33:41;25.80;57.60
46816;DHT22;32787;53.316;8.670;2023-07-24T13:36:06;25.50;59.90
46816;DHT22;32787;53.316;8.670;2023-07-24T13:38:32;25.30;58.90
46816;DHT22;32787;53.316;8.670;2023-07-24T13:40:58;25.20;59.30
46816;DHT22;32787;53.316;8.670;2023-07-24T13:43:24;24.80;60.90
46816;DHT22;32787;53.316;8.670;2023-07-24T13:45:49;25.00;59.90
46816;DHT22;32787;53.316;8.670;2023-07-24T13:48:15;25.50;59.70
46816;DHT22;32787;53.316;8.670;2023-07-24T13:50:40;26.00;57.40
46816;DHT22;32787;53.316;8.670;2023-07-24T13:53:06;25.40;56.40
46816;DHT22;32787;53.316;8.670;2023-07-24T13:55:32;25.20;59.40
46816;DHT22;32787;53.316;8.670;2023-07-24T13:57:57;25.00;58.50
46816;DHT22;32787;53.316;8.670;2023-07-24T14:00:23;25.00;58.10
46816;DHT22;32787;53.316;8.670;2023-07-24T14:02:48;25.00;60.70
46816;DHT22;32787;53.316;8.670;2023-07-24T14:05:15;25.00;58.80
46816;DHT22;32787;53.316;8.670;2023-07-24T14:07:41;24.60;61.00
46816;DHT22;32787;53.316;8.670;2023-07-24T14:10:07;25.00;61.40
46816;DHT22;32787;53.316;8.670;2023-07-24T14:12:33;25.30;60.10
46816;DHT22;32787;53.316;8.670;2023-07-24T14:14:58;25.20;58.80
46816;DHT22;32787;53.316;8.670;2023-07-24T14:17:24;25.00;63.10
46816;DHT22;32787;53.316;8.670;2023-07-24T14:19:50;24.20;59.60
46816;DHT22;32787;53.316;8.670;2023-07-24T14:22:15;23.30;62.90
46816;DHT22;32787;53.316;8.670;2023-07-24T14:24:41;22.50;62.80
46816;DHT22;32787;53.316;8.670;2023-07-24T14:27:06;21.50;65.00
46816;DHT22;32787;53.316;8.670;2023-07-24T14:29:32;21.30;66.50
46816;DHT22;32787;53.316;8.670;2023-07-24T14:31:58;21.00;66.90
46816;DHT22;32787;53.316;8.670;2023-07-24T14:34:23;20.70;68.10
46816;DHT22;32787;53.316;8.670;2023-07-24T14:36:49;20.50;68.50
46816;DHT22;32787;53.316;8.670;2023-07-24T14:39:14;20.30;70.30
46816;DHT22;32787;53.316;8.670;2023-07-24T14:41:40;20.00;70.20
46816;DHT22;32787;53.316;8.670;2023-07-24T14:44:06;19.70;70.70
46816;DHT22;32787;53.316;8.670;2023-07-24T14:46:31;19.70;71.70
46816;DHT22;32787;53.316;8.670;2023-07-24T14:48:57;19.70;74.00
46816;DHT22;32787;53.316;8.670;2023-07-24T14:51:23;19.80;71.90
46816;DHT22;32787;53.316;8.670;2023-07-24T14:53:53;19.70;72.30
46816;DHT22;32787;53.316;8.670;2023-07-24T14:56:19;19.50;73.10
46816;DHT22;32787;53.316;8.670;2023-07-24T14:58:49;19.40;73.60
46816;DHT22;32787;53.316;8.670;2023-07-24T15:01:15;19.40;74.70
46816;DHT22;32787;53.316;8.670;2023-07-24T15:03:41;19.30;75.80
46816;DHT22;32787;53.316;8.670;2023-07-24T15:06:06;19.30;76.20
46816;DHT22;32787;53.316;8.670;2023-07-24T15:08:33;19.00;78.30
46816;DHT22;32787;53.316;8.670;2023-07-24T15:10:59;19.10;79.00
46816;DHT22;32787;53.316;8.670;2023-07-24T15:13:25;18.90;79.30
46816;DHT22;32787;53.316;8.670;2023-07-24T15:15:51;18.80;80.40
46816;DHT22;32787;53.316;8.670;2023-07-24T15:18:16;18.60;81.50
46816;DHT22;32787;53.316;8.670;2023-07-24T15:20:42;18.50;82.10
46816;DHT22;32787;53.316;8.670;2023-07-24T15:23:07;18.10;83.70
46816;DHT22;32787;53.316;8.670;2023-07-24T15:25:33;18.00;85.60
46816;DHT22;32787;53.316;8.670;2023-07-24T15:27:59;18.00;86.30
46816;DHT22;32787;53.316;8.670;2023-07-24T15:30:25;17.80;86.90
46816;DHT22;32787;53.316;8.670;2023-07-24T15:32:50;17.60;87.90